sensor_id;sensor_type;location;lat;lon;timestamp;pressure;altitude;pressure_sealevel;temperature;humidity
11672;BME280;5892;43.412;24.612;2022-12-08T00:01:24;99980.41;;;6.69;100.00
11672;BME280;5892;43.412;24.612;2022-12-08T00:03:52;99982.22;;;6.74;100.00
11672;BME280;5892;43.412;24.612;2022-12-08T00:06:23;99985.69;;;6.79;100.00
11672;BME280;5892;43.412;24.612;2022-12-08T00:09:14;99976.25;;;6.72;100.00
11672;BME280;5892;43.412;24.612;2022-12-08T00:11:47;99990.84;;;6.81;100.00
11672;BME280;5892;43.412;24.612;2022-12-08T00:14:14;99991.97;;;6.80;100.00
11672;BME280;5892;43.412;24.612;2022-12-08T00:16:41;99983.25;;;6.78;100.00
11672;BME280;5892;43.412;24.612;2022-12-08T00:19:08;99994.91;;;6.84;100.00
11672;BME280;5892;43.412;24.612;2022-12-08T00:21:35;100002.25;;;6.83;100.00
11672;BME280;5892;43.412;24.612;2022-12-08T00:24:02;100007.69;;;6.83;100.00
11672;BME280;5892;43.412;24.612;2022-12-08T00:26:30;100022.41;;;6.82;100.00
11672;BME280;5892;43.412;24.612;2022-12-08T00:28:59;100015.72;;;6.74;100.00
11672;BME280;5892;43.412;24.612;2022-12-08T00:31:26;99985.66;;;6.61;100.00
11672;BME280;5892;43.412;24.612;2022-12-08T00:33:53;100023.75;;;6.85;100.00
11672;BME280;5892;43.412;24.612;2022-12-08T00:36:20;100018.13;;;6.76;100.00
11672;BME280;5892;43.412;24.612;2022-12-08T00:38:47;100017.56;;;6.79;100.00
11672;BME280;5892;43.412;24.612;2022-12-08T00:41:15;100003.94;;;6.79;100.00
11672;BME280;5892;43.412;24.612;2022-12-08T00:43:44;100001.97;;;6.85;100.00
11672;BME280;5892;43.412;24.612;2022-12-08T00:46:11;100019.69;;;6.82;100.00
11672;BME280;5892;43.412;24.612;2022-12-08T00:48:38;100013.75;;;6.80;100.00
11672;BME280;5892;43.412;24.612;2022-12-08T00:51:05;100028.38;;;6.84;100.00
11672;BME280;5892;43.412;24.612;2022-12-08T00:53:32;100020.97;;;6.90;100.00
11672;BME280;5892;43.412;24.612;2022-12-08T00:55:58;100006.44;;;6.75;100.00
11672;BME280;5892;43.412;24.612;2022-12-08T00:58:25;100040.38;;;6.83;100.00
11672;BME280;5892;43.412;24.612;2022-12-08T01:00:54;100044.41;;;6.86;100.00
11672;BME280;5892;43.412;24.612;2022-12-08T01:03:20;100023.88;;;6.74;100.00
11672;BME280;5892;43.412;24.612;2022-12-08T01:05:47;100020.28;;;6.79;100.00
11672;BME280;5892;43.412;24.612;2022-12-08T01:08:14;100011.03;;;6.80;100.00
11672;BME280;5892;43.412;24.612;2022-12-08T01:10:41;99994.56;;;6.66;100.00
11672;BME280;5892;43.412;24.612;2022-12-08T01:13:08;100021.38;;;6.78;100.00
11672;BME280;5892;43.412;24.612;2022-12-08T01:15:36;100017.56;;;6.79;100.00
11672;BME280;5892;43.412;24.612;2022-12-08T01:18:04;100006.59;;;6.84;100.00
11672;BME280;5892;43.412;24.612;2022-12-08T01:20:31;99990.91;;;6.76;100.00
11672;BME280;5892;43.412;24.612;2022-12-08T01:22:58;100007.75;;;6.78;100.00
11672;BME280;5892;43.412;24.612;2022-12-08T01:25:25;100010.63;;;6.68;100.00
11672;BME280;5892;43.412;24.612;2022-12-08T01:27:52;100003.84;;;6.65;100.00
11672;BME280;5892;43.412;24.612;2022-12-08T01:30:19;100013.84;;;6.70;100.00
11672;BME280;5892;43.412;24.612;2022-12-08T01:32:46;100006.75;;;6.74;100.00
11672;BME280;5892;43.412;24.612;2022-12-08T01:35:14;99997.41;;;6.80;100.00
11672;BME280;5892;43.412;24.612;2022-12-08T01:37:41;99987.16;;;6.72;100.00
11672;BME280;5892;43.412;24.612;2022-12-08T01:40:09;99999.88;;;6.76;100.00
11672;BME280;5892;43.412;24.612;2022-12-08T01:42:36;100005.50;;;6.85;100.00
11672;BME280;5892;43.412;24.612;2022-12-08T01:45:05;99992.75;;;6.80;100.00
11672;BME280;5892;43.412;24.612;2022-12-08T01:47:38;100001.66;;;6.86;100.00
11672;BME280;5892;43.412;24.612;2022-12-08T01:50:09;100006.06;;;6.82;100.00
11672;BME280;5892;43.412;24.612;2022-12-08T01:52:40;99993.13;;;6.74;100.00
11672;BME280;5892;43.412;24.612;2022-12-08T01:55:13;100005.56;;;6.80;100.00
11672;BME280;5892;43.412;24.612;2022-12-08T01:57:46;100007.69;;;6.83;100.00
11672;BME280;5892;43.412;24.612;2022-12-08T02:00:16;99971.75;;;6.62;100.00
11672;BME280;5892;43.412;24.612;2022-12-08T02:02:51;99985.91;;;6.83;100.00
11672;BME280;5892;43.412;24.612;2022-12-08T02:05:21;99987.59;;;6.79;100.00
11672;BME280;5892;43.412;24.612;2022-12-08T02:07:50;99973.59;;;6.67;100.00
11672;BME280;5892;43.412;24.612;2022-12-08T02:10:20;99976.41;;;6.80;100.00
11672;BME280;5892;43.412;24.612;2022-12-08T02:12:47;99972.38;;;6.78;100.00
11672;BME280;5892;43.412;24.612;2022-12-08T02:15:15;99982.44;;;6.77;100.00
11672;BME280;5892;43.412;24.612;2022-12-08T02:17:50;99975.09;;;6.78;100.00
11672;BME280;5892;43.412;24.612;2022-12-08T02:20:36;99966.63;;;6.79;100.00
11672;BME280;5892;43.412;24.612;2022-12-08T02:23:13;99967.81;;;6.73;100.00
11672;BME280;5892;43.412;24.612;2022-12-08T02:28:54;99964.72;;;6.80;100.00
11672;BME280;5892;43.412;24.612;2022-12-08T02:31:33;99963.59;;;6.81;100.00
11672;BME280;5892;43.412;24.612;2022-12-08T02:34:11;99957.66;;;6.79;100.00
11672;BME280;5892;43.412;24.612;2022-12-08T02:36:47;99963.75;;;6.71;100.00
11672;BME280;5892;43.412;24.612;2022-12-08T02:39:26;99930.03;;;6.48;100.00
11672;BME280;5892;43.412;24.612;2022-12-08T02:41:58;99957.78;;;6.69;100.00
11672;BME280;5892;43.412;24.612;2022-12-08T02:44:29;99975.72;;;6.70;100.00
11672;BME280;5892;43.412;24.612;2022-12-08T02:47:01;99980.00;;;6.76;100.00
11672;BME280;5892;43.412;24.612;2022-12-08T02:49:33;99928.41;;;6.47;100.00
11672;BME280;5892;43.412;24.612;2022-12-08T02:52:05;99990.91;;;6.76;100.00
11672;BME280;5892;43.412;24.612;2022-12-08T02:54:32;99985.44;;;6.76;100.00
11672;BME280;5892;43.412;24.612;2022-12-08T02:57:17;99990.63;;;6.77;100.00
11672;BME280;5892;43.412;24.612;2022-12-08T02:59:59;99988.50;;;6.74;100.00
11672;BME280;5892;43.412;24.612;2022-12-08T03:02:41;99991.50;;;6.73;100.00
11672;BME280;5892;43.412;24.612;2022-12-08T03:05:19;100006.00;;;6.68;100.00
11672;BME280;5892;43.412;24.612;2022-12-08T03:07:53;100001.13;;;6.65;100.00
11672;BME280;5892;43.412;24.612;2022-12-08T03:10:29;99999.72;;;6.68;100.00
11672;BME280;5892;43.412;24.612;2022-12-08T03:13:01;100002.53;;;6.63;100.00
11672;BME280;5892;43.412;24.612;2022-12-08T03:15:30;99998.69;;;6.64;100.00
11672;BME280;5892;43.412;24.612;2022-12-08T03:17:58;100001.50;;;6.59;100.00
11672;BME280;5892;43.412;24.612;2022-12-08T03:20:29;99984.63;;;6.57;100.00
11672;BME280;5892;43.412;24.612;2022-12-08T03:22:58;99989.72;;;6.63;100.00
11672;BME280;5892;43.412;24.612;2022-12-08T03:25:29;99988.16;;;6.57;100.00
11672;BME280;5892;43.412;24.612;2022-12-08T03:27:58;99982.13;;;6.60;100.00
11672;BME280;5892;43.412;24.612;2022-12-08T03:30:27;99958.75;;;6.59;100.00
11672;BME280;5892;43.412;24.612;2022-12-08T03:33:01;99967.69;;;6.60;100.00
11672;BME280;5892;43.412;24.612;2022-12-08T03:35:32;99978.91;;;6.58;100.00
11672;BME280;5892;43.412;24.612;2022-12-08T03:38:03;99956.94;;;6.50;100.00
11672;BME280;5892;43.412;24.612;2022-12-08T03:40:31;99979.19;;;6.57;100.00
11672;BME280;5892;43.412;24.612;2022-12-08T03:42:58;99976.47;;;6.57;100.00
11672;BME280;5892;43.412;24.612;2022-12-08T03:45:25;100000.31;;;6.65;100.00
11672;BME280;5892;43.412;24.612;2022-12-08T03:47:52;100005.19;;;6.68;100.00
11672;BME280;5892;43.412;24.612;2022-12-08T03:50:19;100000.47;;;6.73;100.00
11672;BME280;5892;43.412;24.612;2022-12-08T03:52:48;99982.31;;;6.69;100.00
11672;BME280;5892;43.412;24.612;2022-12-08T03:55:15;99992.19;;;6.60;100.00
11672;BME280;5892;43.412;24.612;2022-12-08T03:57:42;100009.59;;;6.64;100.00
11672;BME280;5892;43.412;24.612;2022-12-08T04:00:13;100009.06;;;6.62;100.00
11672;BME280;5892;43.412;24.612;2022-12-08T04:02:41;100007.97;;;6.63;100.00
11672;BME280;5892;43.412;24.612;2022-12-08T04:05:08;100006.88;;;6.64;100.00
11672;BME280;5892;43.412;24.612;2022-12-08T04:07:35;100015.59;;;6.61;100.00
11672;BME280;5892;43.412;24.612;2022-12-08T04:10:04;100001.63;;;6.49;100.00
11672;BME280;5892;43.412;24.612;2022-12-08T04:12:31;99998.97;;;6.62;100.00
11672;BME280;5892;43.412;24.612;2022-12-08T04:14:58;100014.09;;;6.50;100.00
11672;BME280;5892;43.412;24.612;2022-12-08T04:17:26;100004.91;;;6.46;100.00
11672;BME280;5892;43.412;24.612;2022-12-08T04:19:53;100023.78;;;6.61;100.00
11672;BME280;5892;43.412;24.612;2022-12-08T04:22:19;100029.75;;;6.63;100.00
11672;BME280;5892;43.412;24.612;2022-12-08T04:24:47;100044.81;;;6.55;100.00
11672;BME280;5892;43.412;24.612;2022-12-08T04:27:15;100041.13;;;6.65;100.00
11672;BME280;5892;43.412;24.612;2022-12-08T04:29:42;100030.84;;;6.62;100.00
11672;BME280;5892;43.412;24.612;2022-12-08T04:32:09;100016.47;;;6.56;100.00
11672;BME280;5892;43.412;24.612;2022-12-08T04:34:35;100026.97;;;6.44;100.00
11672;BME280;5892;43.412;24.612;2022-12-08T04:37:02;100019.72;;;6.34;100.00
11672;BME280;5892;43.412;24.612;2022-12-08T04:39:29;99976.31;;;6.24;100.00
11672;BME280;5892;43.412;24.612;2022-12-08T04:41:56;100008.66;;;6.50;100.00
11672;BME280;5892;43.412;24.612;2022-12-08T04:44:24;100001.63;;;6.49;100.00
11672;BME280;5892;43.412;24.612;2022-12-08T04:46:51;100000.94;;;6.38;100.00
11672;BME280;5892;43.412;24.612;2022-12-08T04:49:18;99920.16;;;5.86;100.00
11672;BME280;5892;43.412;24.612;2022-12-08T04:51:45;99999.75;;;6.44;100.00
11672;BME280;5892;43.412;24.612;2022-12-08T04:54:12;99940.25;;;6.14;100.00
11672;BME280;5892;43.412;24.612;2022-12-08T04:56:39;100002.47;;;6.44;100.00
11672;BME280;5892;43.412;24.612;2022-12-08T04:59:05;100009.25;;;6.47;100.00
11672;BME280;5892;43.412;24.612;2022-12-08T05:01:34;100016.59;;;6.46;100.00
11672;BME280;5892;43.412;24.612;2022-12-08T05:04:01;100013.28;;;6.49;100.00
11672;BME280;5892;43.412;24.612;2022-12-08T05:06:29;100021.09;;;6.56;100.00
11672;BME280;5892;43.412;24.612;2022-12-08T05:08:56;100017.22;;;6.62;100.00
11672;BME280;5892;43.412;24.612;2022-12-08T05:11:23;100002.66;;;6.53;100.00
11672;BME280;5892;43.412;24.612;2022-12-08T05:13:50;100033.78;;;6.65;100.00
11672;BME280;5892;43.412;24.612;2022-12-08T05:16:17;99954.88;;;6.18;100.00
11672;BME280;5892;43.412;24.612;2022-12-08T05:18:45;100024.03;;;6.64;100.00
11672;BME280;5892;43.412;24.612;2022-12-08T05:21:12;100021.59;;;6.63;100.00
11672;BME280;5892;43.412;24.612;2022-12-08T05:23:39;100025.63;;;6.65;100.00
11672;BME280;5892;43.412;24.612;2022-12-08T05:26:06;100025.56;;;6.70;100.00
11672;BME280;5892;43.412;24.612;2022-12-08T05:28:32;100024.53;;;6.66;100.00
11672;BME280;5892;43.412;24.612;2022-12-08T05:30:59;100023.50;;;6.62;100.00
11672;BME280;5892;43.412;24.612;2022-12-08T05:33:26;100021.66;;;6.58;100.00
11672;BME280;5892;43.412;24.612;2022-12-08T05:35:54;100035.81;;;6.55;100.00
11672;BME280;5892;43.412;24.612;2022-12-08T05:38:21;100034.50;;;6.52;100.00
11672;BME280;5892;43.412;24.612;2022-12-08T05:40:48;100033.41;;;6.53;100.00
11672;BME280;5892;43.412;24.612;2022-12-08T05:43:15;100037.00;;;6.49;100.00
11672;BME280;5892;43.412;24.612;2022-12-08T05:45:42;100047.06;;;6.48;100.00
11672;BME280;5892;43.412;24.612;2022-12-08T05:48:09;100033.22;;;6.45;100.00
11672;BME280;5892;43.412;24.612;2022-12-08T05:50:36;100040.06;;;6.42;100.00
11672;BME280;5892;43.412;24.612;2022-12-08T05:53:04;100047.13;;;6.43;100.00
11672;BME280;5892;43.412;24.612;2022-12-08T05:55:31;100055.03;;;6.39;100.00
11672;BME280;5892;43.412;24.612;2022-12-08T05:57:58;100065.44;;;6.37;100.00
11672;BME280;5892;43.412;24.612;2022-12-08T06:00:27;100064.66;;;6.32;100.00
11672;BME280;5892;43.412;24.612;2022-12-08T06:02:54;100073.06;;;6.35;100.00
11672;BME280;5892;43.412;24.612;2022-12-08T06:05:20;100056.03;;;6.25;100.00
11672;BME280;5892;43.412;24.612;2022-12-08T06:07:47;100074.22;;;6.29;100.00
11672;BME280;5892;43.412;24.612;2022-12-08T06:10:16;100074.47;;;6.33;100.00
11672;BME280;5892;43.412;24.612;2022-12-08T06:12:43;100076.53;;;6.41;100.00
11672;BME280;5892;43.412;24.612;2022-12-08T06:15:10;100076.06;;;6.34;100.00
11672;BME280;5892;43.412;24.612;2022-12-08T06:17:43;100081.13;;;6.46;100.00
11672;BME280;5892;43.412;24.612;2022-12-08T06:20:10;100078.97;;;6.43;100.00
11672;BME280;5892;43.412;24.612;2022-12-08T06:22:37;100062.41;;;6.39;100.00
11672;BME280;5892;43.412;24.612;2022-12-08T06:25:05;100071.22;;;6.31;100.00
11672;BME280;5892;43.412;24.612;2022-12-08T06:27:33;100049.06;;;6.14;100.00
11672;BME280;5892;43.412;24.612;2022-12-08T06:30:00;100065.88;;;6.21;100.00
11672;BME280;5892;43.412;24.612;2022-12-08T06:32:27;100060.66;;;6.24;100.00
11672;BME280;5892;43.412;24.612;2022-12-08T06:34:54;100058.84;;;6.44;100.00
11672;BME280;5892;43.412;24.612;2022-12-08T06:37:21;100066.25;;;6.38;100.00
11672;BME280;5892;43.412;24.612;2022-12-08T06:39:47;100064.56;;;6.42;100.00
11672;BME280;5892;43.412;24.612;2022-12-08T06:42:14;100079.03;;;6.37;100.00
11672;BME280;5892;43.412;24.612;2022-12-08T06:45:00;100036.38;;;6.04;100.00
11672;BME280;5892;43.412;24.612;2022-12-08T06:47:27;100035.50;;;6.09;100.00
11672;BME280;5892;43.412;24.612;2022-12-08T06:49:54;100069.03;;;6.33;100.00
11672;BME280;5892;43.412;24.612;2022-12-08T06:52:21;100082.81;;;6.42;100.00
11672;BME280;5892;43.412;24.612;2022-12-08T06:54:48;100003.31;;;5.92;100.00
11672;BME280;5892;43.412;24.612;2022-12-08T06:57:15;100087.16;;;6.43;100.00
11672;BME280;5892;43.412;24.612;2022-12-08T06:59:42;100079.59;;;6.34;100.00
11672;BME280;5892;43.412;24.612;2022-12-08T07:02:11;100043.78;;;6.27;100.00
11672;BME280;5892;43.412;24.612;2022-12-08T07:04:37;100062.06;;;6.46;100.00
11672;BME280;5892;43.412;24.612;2022-12-08T07:07:04;100076.16;;;6.53;100.00
11672;BME280;5892;43.412;24.612;2022-12-08T07:09:31;100068.03;;;6.48;100.00
11672;BME280;5892;43.412;24.612;2022-12-08T07:11:58;100076.31;;;6.61;100.00
11672;BME280;5892;43.412;24.612;2022-12-08T07:14:25;100073.09;;;6.59;100.00
11672;BME280;5892;43.412;24.612;2022-12-08T07:16:52;100086.50;;;6.51;100.00
11672;BME280;5892;43.412;24.612;2022-12-08T07:19:20;100082.56;;;6.62;100.00
11672;BME280;5892;43.412;24.612;2022-12-08T07:21:47;100087.78;;;6.58;100.00
11672;BME280;5892;43.412;24.612;2022-12-08T07:24:14;100071.25;;;6.50;100.00
11672;BME280;5892;43.412;24.612;2022-12-08T07:26:41;99987.41;;;6.04;100.00
11672;BME280;5892;43.412;24.612;2022-12-08T07:29:08;100077.47;;;6.55;100.00
11672;BME280;5892;43.412;24.612;2022-12-08T07:31:38;100089.81;;;6.48;100.00
11672;BME280;5892;43.412;24.612;2022-12-08T07:34:05;100079.31;;;6.60;100.00
11672;BME280;5892;43.412;24.612;2022-12-08T07:36:33;100075.97;;;6.68;100.00
11672;BME280;5892;43.412;24.612;2022-12-08T07:39:00;100081.53;;;6.58;100.00
11672;BME280;5892;43.412;24.612;2022-12-08T07:41:27;100082.09;;;6.55;100.00
11672;BME280;5892;43.412;24.612;2022-12-08T07:43:55;100094.16;;;6.49;100.00
11672;BME280;5892;43.412;24.612;2022-12-08T07:46:24;100102.28;;;6.54;100.00
11672;BME280;5892;43.412;24.612;2022-12-08T07:48:51;100094.81;;;6.64;100.00
11672;BME280;5892;43.412;24.612;2022-12-08T07:51:18;100068.44;;;6.60;100.00
11672;BME280;5892;43.412;24.612;2022-12-08T07:53:48;100092.53;;;6.71;100.00
11672;BME280;5892;43.412;24.612;2022-12-08T07:56:16;100048.50;;;6.41;100.00
11672;BME280;5892;43.412;24.612;2022-12-08T07:58:43;100083.09;;;6.64;100.00
11672;BME280;5892;43.412;24.612;2022-12-08T08:01:19;100073.88;;;6.60;100.00
11672;BME280;5892;43.412;24.612;2022-12-08T08:03:46;100077.13;;;6.62;100.00
11672;BME280;5892;43.412;24.612;2022-12-08T08:06:13;100084.41;;;6.66;100.00
11672;BME280;5892;43.412;24.612;2022-12-08T08:08:40;100027.06;;;6.10;100.00
11672;BME280;5892;43.412;24.612;2022-12-08T08:11:08;100069.59;;;6.54;100.00
11672;BME280;5892;43.412;24.612;2022-12-08T08:13:35;100002.00;;;6.13;100.00
11672;BME280;5892;43.412;24.612;2022-12-08T08:16:03;100077.59;;;6.69;100.00
11672;BME280;5892;43.412;24.612;2022-12-08T08:18:30;100085.72;;;6.74;100.00
11672;BME280;5892;43.412;24.612;2022-12-08T08:20:57;100094.50;;;6.66;100.00
11672;BME280;5892;43.412;24.612;2022-12-08T08:23:24;100080.66;;;6.62;100.00
11672;BME280;5892;43.412;24.612;2022-12-08T08:25:51;100088.38;;;6.79;100.00
11672;BME280;5892;43.412;24.612;2022-12-08T08:28:19;100084.56;;;6.99;100.00
11672;BME280;5892;43.412;24.612;2022-12-08T08:30:46;100036.81;;;6.64;100.00
11672;BME280;5892;43.412;24.612;2022-12-08T08:33:13;100104.38;;;7.04;100.00
11672;BME280;5892;43.412;24.612;2022-12-08T08:35:40;100104.25;;;7.14;100.00
11672;BME280;5892;43.412;24.612;2022-12-08T08:38:08;100079.88;;;7.04;100.00
11672;BME280;5892;43.412;24.612;2022-12-08T08:40:35;100093.88;;;7.35;100.00
11672;BME280;5892;43.412;24.612;2022-12-08T08:43:03;100090.81;;;7.42;100.00
11672;BME280;5892;43.412;24.612;2022-12-08T08:45:32;100081.16;;;7.31;100.00
11672;BME280;5892;43.412;24.612;2022-12-08T08:47:59;100083.50;;;7.37;100.00
11672;BME280;5892;43.412;24.612;2022-12-08T08:50:26;100080.94;;;7.46;100.00
11672;BME280;5892;43.412;24.612;2022-12-08T08:52:53;100032.63;;;7.33;100.00
11672;BME280;5892;43.412;24.612;2022-12-08T08:55:20;100081.06;;;7.73;100.00
11672;BME280;5892;43.412;24.612;2022-12-08T08:57:47;100032.94;;;7.63;100.00
11672;BME280;5892;43.412;24.612;2022-12-08T09:00:14;100075.09;;;8.03;100.00
11672;BME280;5892;43.412;24.612;2022-12-08T09:02:43;100070.56;;;8.13;100.00
11672;BME280;5892;43.412;24.612;2022-12-08T09:05:10;100075.94;;;8.18;100.00
11672;BME280;5892;43.412;24.612;2022-12-08T09:07:37;100064.50;;;8.16;100.00
11672;BME280;5892;43.412;24.612;2022-12-08T09:10:05;100053.69;;;8.11;100.00
11672;BME280;5892;43.412;24.612;2022-12-08T09:12:32;100065.00;;;8.04;100.00
11672;BME280;5892;43.412;24.612;2022-12-08T09:14:59;100067.09;;;7.93;100.00
11672;BME280;5892;43.412;24.612;2022-12-08T09:17:26;100072.38;;;8.03;100.00
11672;BME280;5892;43.412;24.612;2022-12-08T09:19:55;100065.81;;;8.04;100.00
11672;BME280;5892;43.412;24.612;2022-12-08T09:22:21;100068.25;;;8.20;100.00
11672;BME280;5892;43.412;24.612;2022-12-08T09:24:48;100063.38;;;8.03;100.00
11672;BME280;5892;43.412;24.612;2022-12-08T09:27:16;100054.44;;;7.84;100.00
11672;BME280;5892;43.412;24.612;2022-12-08T09:29:43;100044.16;;;7.94;100.00
11672;BME280;5892;43.412;24.612;2022-12-08T09:32:10;100056.25;;;7.88;100.00
11672;BME280;5892;43.412;24.612;2022-12-08T09:34:37;100022.75;;;7.69;100.00
11672;BME280;5892;43.412;24.612;2022-12-08T09:37:05;100051.38;;;7.85;100.00
11672;BME280;5892;43.412;24.612;2022-12-08T09:39:32;100007.44;;;7.54;100.00
11672;BME280;5892;43.412;24.612;2022-12-08T09:42:01;100054.38;;;8.02;100.00
11672;BME280;5892;43.412;24.612;2022-12-08T09:44:48;100039.88;;;7.88;100.00
11672;BME280;5892;43.412;24.612;2022-12-08T09:47:20;100041.69;;;7.79;100.00
11672;BME280;5892;43.412;24.612;2022-12-08T09:49:52;100029.41;;;7.63;100.00
11672;BME280;5892;43.412;24.612;2022-12-08T09:52:24;100032.53;;;7.70;100.00
11672;BME280;5892;43.412;24.612;2022-12-08T09:54:52;100038.63;;;7.81;100.00
11672;BME280;5892;43.412;24.612;2022-12-08T09:57:22;100036.31;;;7.74;100.00
11672;BME280;5892;43.412;24.612;2022-12-08T09:59:53;99986.19;;;7.38;100.00
11672;BME280;5892;43.412;24.612;2022-12-08T10:02:22;100035.06;;;7.66;100.00
11672;BME280;5892;43.412;24.612;2022-12-08T10:04:53;100050.97;;;7.78;100.00
11672;BME280;5892;43.412;24.612;2022-12-08T10:07:28;100047.69;;;7.62;100.00
11672;BME280;5892;43.412;24.612;2022-12-08T10:10:04;100013.47;;;7.38;100.00
11672;BME280;5892;43.412;24.612;2022-12-08T10:12:38;99948.00;;;7.05;100.00
11672;BME280;5892;43.412;24.612;2022-12-08T10:15:24;100037.91;;;7.75;100.00
11672;BME280;5892;43.412;24.612;2022-12-08T10:17:53;99995.31;;;7.47;100.00
11672;BME280;5892;43.412;24.612;2022-12-08T10:20:22;100032.16;;;7.77;100.00
11672;BME280;5892;43.412;24.612;2022-12-08T10:22:57;100031.88;;;7.78;100.00
11672;BME280;5892;43.412;24.612;2022-12-08T10:25:33;100027.53;;;7.77;100.00
11672;BME280;5892;43.412;24.612;2022-12-08T10:28:02;100017.44;;;7.78;100.00
11672;BME280;5892;43.412;24.612;2022-12-08T10:30:30;100013.19;;;7.85;100.00
11672;BME280;5892;43.412;24.612;2022-12-08T10:32:57;100006.59;;;8.05;100.00
11672;BME280;5892;43.412;24.612;2022-12-08T10:35:41;100003.34;;;8.17;100.00
11672;BME280;5892;43.412;24.612;2022-12-08T10:38:20;99992.41;;;7.89;100.00
11672;BME280;5892;43.412;24.612;2022-12-08T10:40:50;100026.88;;;8.13;100.00
11672;BME280;5892;43.412;24.612;2022-12-08T10:43:20;99985.69;;;7.68;100.00
11672;BME280;5892;43.412;24.612;2022-12-08T10:45:51;99999.88;;;7.84;100.00
11672;BME280;5892;43.412;24.612;2022-12-08T10:48:20;100009.78;;;7.93;100.00
11672;BME280;5892;43.412;24.612;2022-12-08T10:50:53;100027.59;;;8.04;100.00
11672;BME280;5892;43.412;24.612;2022-12-08T10:53:23;100016.63;;;7.77;100.00
11672;BME280;5892;43.412;24.612;2022-12-08T10:55:52;100012.59;;;7.88;100.00
11672;BME280;5892;43.412;24.612;2022-12-08T10:58:24;99998.44;;;7.86;100.00
11672;BME280;5892;43.412;24.612;2022-12-08T11:00:53;99995.91;;;7.76;100.00
11672;BME280;5892;43.412;24.612;2022-12-08T11:03:25;99987.94;;;7.80;100.00
11672;BME280;5892;43.412;24.612;2022-12-08T11:05:56;99950.16;;;7.73;100.00
11672;BME280;5892;43.412;24.612;2022-12-08T11:08:25;99968.97;;;7.88;100.00
11672;BME280;5892;43.412;24.612;2022-12-08T11:10:54;99976.53;;;7.91;100.00
11672;BME280;5892;43.412;24.612;2022-12-08T11:13:23;99978.22;;;7.74;100.00
11672;BME280;5892;43.412;24.612;2022-12-08T11:15:53;99962.16;;;7.72;100.00
11672;BME280;5892;43.412;24.612;2022-12-08T11:18:27;99984.41;;;7.79;100.00
11672;BME280;5892;43.412;24.612;2022-12-08T11:21:05;99980.63;;;7.75;100.00
11672;BME280;5892;43.412;24.612;2022-12-08T11:23:36;99981.00;;;7.55;100.00
11672;BME280;5892;43.412;24.612;2022-12-08T11:26:06;99982.13;;;7.35;100.00
11672;BME280;5892;43.412;24.612;2022-12-08T11:28:37;99975.81;;;7.21;100.00
11672;BME280;5892;43.412;24.612;2022-12-08T11:31:12;99978.63;;;7.16;100.00
11672;BME280;5892;43.412;24.612;2022-12-08T11:33:45;99949.97;;;7.18;100.00
11672;BME280;5892;43.412;24.612;2022-12-08T11:36:14;99948.78;;;7.24;100.00
11672;BME280;5892;43.412;24.612;2022-12-08T11:38:45;99976.97;;;7.52;100.00
11672;BME280;5892;43.412;24.612;2022-12-08T11:41:15;99966.47;;;7.59;100.00
11672;BME280;5892;43.412;24.612;2022-12-08T11:43:47;99901.34;;;7.26;100.00
11672;BME280;5892;43.412;24.612;2022-12-08T11:46:21;99943.69;;;7.69;100.00
11672;BME280;5892;43.412;24.612;2022-12-08T11:48:51;99971.19;;;8.00;100.00
11672;BME280;5892;43.412;24.612;2022-12-08T11:51:27;99894.31;;;7.38;100.00
11672;BME280;5892;43.412;24.612;2022-12-08T11:54:07;99965.72;;;7.86;100.00
11672;BME280;5892;43.412;24.612;2022-12-08T11:56:39;99954.78;;;7.86;100.00
11672;BME280;5892;43.412;24.612;2022-12-08T11:59:12;99924.16;;;7.76;100.00
11672;BME280;5892;43.412;24.612;2022-12-08T12:01:41;99930.81;;;7.70;100.00
11672;BME280;5892;43.412;24.612;2022-12-08T12:04:13;99935.25;;;7.52;100.00
11672;BME280;5892;43.412;24.612;2022-12-08T12:07:16;99927.19;;;7.60;100.00
11672;BME280;5892;43.412;24.612;2022-12-08T12:10:12;99931.50;;;7.48;100.00
11672;BME280;5892;43.412;24.612;2022-12-08T12:12:55;99899.91;;;7.14;100.00
11672;BME280;5892;43.412;24.612;2022-12-08T12:15:54;99913.69;;;7.37;100.00
11672;BME280;5892;43.412;24.612;2022-12-08T12:18:33;99930.16;;;7.32;100.00
11672;BME280;5892;43.412;24.612;2022-12-08T12:21:06;99915.00;;;7.07;100.00
11672;BME280;5892;43.412;24.612;2022-12-08T12:23:40;99919.41;;;7.21;100.00
11672;BME280;5892;43.412;24.612;2022-12-08T12:26:17;99922.22;;;7.16;100.00
11672;BME280;5892;43.412;24.612;2022-12-08T12:28:48;99911.81;;;7.18;100.00
11672;BME280;5892;43.412;24.612;2022-12-08T12:31:17;99901.53;;;7.15;100.00
11672;BME280;5892;43.412;24.612;2022-12-08T12:33:48;99913.88;;;7.27;100.00
11672;BME280;5892;43.412;24.612;2022-12-08T12:36:16;99907.63;;;7.26;100.00
11672;BME280;5892;43.412;24.612;2022-12-08T12:38:45;99911.66;;;7.29;100.00
11672;BME280;5892;43.412;24.612;2022-12-08T12:41:36;99912.06;;;7.36;100.00
11672;BME280;5892;43.412;24.612;2022-12-08T12:44:24;99899.56;;;7.35;100.00
11672;BME280;5892;43.412;24.612;2022-12-08T12:47:05;99905.19;;;7.24;100.00
11672;BME280;5892;43.412;24.612;2022-12-08T12:52:44;99906.38;;;7.18;100.00
11672;BME280;5892;43.412;24.612;2022-12-08T12:58:33;99884.38;;;6.96;100.00
11672;BME280;5892;43.412;24.612;2022-12-08T13:04:16;99905.31;;;7.01;100.00
11672;BME280;5892;43.412;24.612;2022-12-08T13:06:46;99909.06;;;6.86;100.00
11672;BME280;5892;43.412;24.612;2022-12-08T13:09:23;99896.13;;;6.78;100.00
11672;BME280;5892;43.412;24.612;2022-12-08T13:11:54;99889.34;;;6.75;100.00
11672;BME280;5892;43.412;24.612;2022-12-08T13:14:32;99906.13;;;6.82;100.00
11672;BME280;5892;43.412;24.612;2022-12-08T13:17:02;99872.56;;;6.68;100.00
11672;BME280;5892;43.412;24.612;2022-12-08T13:19:32;99893.91;;;6.80;100.00